sensor_id;sensor_type;location;lat;lon;timestamp;pressure;altitude;pressure_sealevel;temperature;humidity
36692;BME280;22678;52.052;4.242;2023-04-19T00:02:05;102809.25;;;9.84;66.45
36692;BME280;22678;52.052;4.242;2023-04-19T00:04:33;102818.09;;;9.87;66.41
36692;BME280;22678;52.052;4.242;2023-04-19T00:06:58;102808.31;;;9.81;66.48
36692;BME280;22678;52.052;4.242;2023-04-19T00:09:24;102803.81;;;9.77;66.63
36692;BME280;22678;52.052;4.242;2023-04-19T00:11:49;102797.63;;;9.74;66.90
36692;BME280;22678;52.052;4.242;2023-04-19T00:14:14;102794.97;;;9.74;66.88
36692;BME280;22678;52.052;4.242;2023-04-19T00:16:40;102807.34;;;9.78;66.98
36692;BME280;22678;52.052;4.242;2023-04-19T00:19:05;102794.81;;;9.68;67.09
36692;BME280;22678;52.052;4.242;2023-04-19T00:21:31;102805.41;;;9.71;67.23
36692;BME280;22678;52.052;4.242;2023-04-19T00:23:56;102805.34;;;9.68;67.12
36692;BME280;22678;52.052;4.242;2023-04-19T00:26:22;102795.47;;;9.59;67.36
36692;BME280;22678;52.052;4.242;2023-04-19T00:28:47;102793.59;;;9.55;67.26
36692;BME280;22678;52.052;4.242;2023-04-19T00:31:12;102809.56;;;9.62;67.53
36692;BME280;22678;52.052;4.242;2023-04-19T00:33:38;102799.72;;;9.55;67.42
36692;BME280;22678;52.052;4.242;2023-04-19T00:36:03;102789.81;;;9.45;67.77
36692;BME280;22678;52.052;4.242;2023-04-19T00:38:28;102801.44;;;9.53;67.80
36692;BME280;22678;52.052;4.242;2023-04-19T00:40:53;102803.94;;;9.49;68.05
36692;BME280;22678;52.052;4.242;2023-04-19T00:43:19;102783.53;;;9.38;68.24
36692;BME280;22678;52.052;4.242;2023-04-19T00:45:46;102794.22;;;9.46;67.96
36692;BME280;22678;52.052;4.242;2023-04-19T00:48:14;102788.81;;;9.40;68.12
36692;BME280;22678;52.052;4.242;2023-04-19T00:50:42;102795.75;;;9.38;68.41
36692;BME280;22678;52.052;4.242;2023-04-19T00:53:09;102790.41;;;9.35;68.37
36692;BME280;22678;52.052;4.242;2023-04-19T00:55:34;102784.19;;;9.31;68.75
36692;BME280;22678;52.052;4.242;2023-04-19T00:58:00;102785.94;;;9.31;68.97
36692;BME280;22678;52.052;4.242;2023-04-19T01:00:25;102792.94;;;9.32;68.84
36692;BME280;22678;52.052;4.242;2023-04-19T01:02:50;102788.44;;;9.27;69.05
36692;BME280;22678;52.052;4.242;2023-04-19T01:05:16;102783.03;;;9.21;69.19
36692;BME280;22678;52.052;4.242;2023-04-19T01:07:42;102784.81;;;9.22;69.33
36692;BME280;22678;52.052;4.242;2023-04-19T01:10:07;102774.06;;;9.13;69.42
36692;BME280;22678;52.052;4.242;2023-04-19T01:12:33;102776.72;;;9.15;69.52
36692;BME280;22678;52.052;4.242;2023-04-19T01:14:58;102782.94;;;9.18;69.79
36692;BME280;22678;52.052;4.242;2023-04-19T01:17:24;102772.19;;;9.09;69.96
36692;BME280;22678;52.052;4.242;2023-04-19T01:19:58;102785.44;;;9.14;70.23
36692;BME280;22678;52.052;4.242;2023-04-19T01:22:23;102764.16;;;9.03;70.40
36692;BME280;22678;52.052;4.242;2023-04-19T01:24:48;102779.16;;;9.07;70.54
36692;BME280;22678;52.052;4.242;2023-04-19T01:27:14;102760.53;;;8.99;70.54
36692;BME280;22678;52.052;4.242;2023-04-19T01:29:41;102764.91;;;8.99;70.55
36692;BME280;22678;52.052;4.242;2023-04-19T01:32:06;102779.03;;;9.04;70.84
36692;BME280;22678;52.052;4.242;2023-04-19T01:34:32;102751.56;;;8.91;70.83
36692;BME280;22678;52.052;4.242;2023-04-19T01:36:57;102773.59;;;8.98;70.83
36692;BME280;22678;52.052;4.242;2023-04-19T01:39:24;102759.47;;;8.92;71.01
36692;BME280;22678;52.052;4.242;2023-04-19T01:41:50;102764.81;;;8.96;71.17
36692;BME280;22678;52.052;4.242;2023-04-19T01:44:15;102769.09;;;8.93;71.36
36692;BME280;22678;52.052;4.242;2023-04-19T01:46:40;102769.88;;;8.89;71.05
36692;BME280;22678;52.052;4.242;2023-04-19T01:49:07;102771.47;;;8.84;71.32
36692;BME280;22678;52.052;4.242;2023-04-19T01:51:32;102766.22;;;8.84;71.78
36692;BME280;22678;52.052;4.242;2023-04-19T01:53:58;102764.34;;;8.80;71.95
36692;BME280;22678;52.052;4.242;2023-04-19T01:56:23;102760.78;;;8.78;72.17
36692;BME280;22678;52.052;4.242;2023-04-19T01:58:48;102766.13;;;8.81;72.03
36692;BME280;22678;52.052;4.242;2023-04-19T02:01:14;102748.34;;;8.71;72.38
36692;BME280;22678;52.052;4.242;2023-04-19T02:03:40;102769.63;;;8.82;72.30
36692;BME280;22678;52.052;4.242;2023-04-19T02:06:12;102776.50;;;8.76;72.56
36692;BME280;22678;52.052;4.242;2023-04-19T02:08:39;102766.03;;;8.78;72.50
36692;BME280;22678;52.052;4.242;2023-04-19T02:11:08;102749.06;;;8.67;72.67
36692;BME280;22678;52.052;4.242;2023-04-19T02:13:35;102765.94;;;8.75;72.91
36692;BME280;22678;52.052;4.242;2023-04-19T02:16:00;102756.19;;;8.71;73.08
36692;BME280;22678;52.052;4.242;2023-04-19T02:18:30;102764.06;;;8.71;73.14
36692;BME280;22678;52.052;4.242;2023-04-19T02:20:56;102752.50;;;8.64;73.25
36692;BME280;22678;52.052;4.242;2023-04-19T02:23:21;102757.69;;;8.63;73.20
36692;BME280;22678;52.052;4.242;2023-04-19T02:25:47;102767.34;;;8.64;73.48
36692;BME280;22678;52.052;4.242;2023-04-19T02:28:12;102769.13;;;8.65;73.36
36692;BME280;22678;52.052;4.242;2023-04-19T02:30:37;102766.41;;;8.62;73.49
36692;BME280;22678;52.052;4.242;2023-04-19T02:33:03;102769.88;;;8.61;73.53
36692;BME280;22678;52.052;4.242;2023-04-19T02:35:28;102769.03;;;8.62;74.17
36692;BME280;22678;52.052;4.242;2023-04-19T02:37:53;102776.88;;;8.60;74.21
36692;BME280;22678;52.052;4.242;2023-04-19T02:40:19;102749.31;;;8.46;74.20
36692;BME280;22678;52.052;4.242;2023-04-19T02:42:46;102766.19;;;8.54;74.62
36692;BME280;22678;52.052;4.242;2023-04-19T02:45:12;102770.44;;;8.50;74.69
36692;BME280;22678;52.052;4.242;2023-04-19T02:47:37;102768.88;;;8.55;74.68
36692;BME280;22678;52.052;4.242;2023-04-19T02:50:03;102782.84;;;8.56;75.05
36692;BME280;22678;52.052;4.242;2023-04-19T02:52:28;102753.69;;;8.45;75.16
36692;BME280;22678;52.052;4.242;2023-04-19T02:54:54;102753.72;;;8.47;75.43
36692;BME280;22678;52.052;4.242;2023-04-19T02:57:19;102768.88;;;8.55;75.60
36692;BME280;22678;52.052;4.242;2023-04-19T02:59:45;102766.34;;;8.58;75.77
36692;BME280;22678;52.052;4.242;2023-04-19T03:02:10;102773.41;;;8.63;75.86
36692;BME280;22678;52.052;4.242;2023-04-19T03:04:35;102764.50;;;8.56;75.84
36692;BME280;22678;52.052;4.242;2023-04-19T03:07:00;102779.63;;;8.65;75.93
36692;BME280;22678;52.052;4.242;2023-04-19T03:09:26;102769.03;;;8.62;76.57
36692;BME280;22678;52.052;4.242;2023-04-19T03:11:51;102772.50;;;8.61;76.47
36692;BME280;22678;52.052;4.242;2023-04-19T03:14:17;102770.06;;;8.67;76.84
36692;BME280;22678;52.052;4.242;2023-04-19T03:16:42;102770.09;;;8.68;76.96
36692;BME280;22678;52.052;4.242;2023-04-19T03:19:08;102771.09;;;8.72;76.82
36692;BME280;22678;52.052;4.242;2023-04-19T03:21:33;102743.56;;;8.57;76.84
36692;BME280;22678;52.052;4.242;2023-04-19T03:23:58;102770.19;;;8.71;77.11
36692;BME280;22678;52.052;4.242;2023-04-19T03:26:24;102772.78;;;8.70;77.14
36692;BME280;22678;52.052;4.242;2023-04-19T03:28:49;102767.53;;;8.70;77.25
36692;BME280;22678;52.052;4.242;2023-04-19T03:31:15;102772.13;;;8.77;77.58
36692;BME280;22678;52.052;4.242;2023-04-19T03:33:40;102758.81;;;8.71;77.48
36692;BME280;22678;52.052;4.242;2023-04-19T03:36:06;102752.78;;;8.73;77.39
36692;BME280;22678;52.052;4.242;2023-04-19T03:38:32;102759.88;;;8.76;77.96
36692;BME280;22678;52.052;4.242;2023-04-19T03:40:57;102769.63;;;8.82;78.06
36692;BME280;22678;52.052;4.242;2023-04-19T03:43:22;102766.22;;;8.84;78.07
36692;BME280;22678;52.052;4.242;2023-04-19T03:45:49;102747.69;;;8.78;77.92
36692;BME280;22678;52.052;4.242;2023-04-19T03:48:14;102762.75;;;8.85;77.80
36692;BME280;22678;52.052;4.242;2023-04-19T03:50:39;102757.50;;;8.85;78.08
36692;BME280;22678;52.052;4.242;2023-04-19T03:53:04;102753.13;;;8.86;78.16
36692;BME280;22678;52.052;4.242;2023-04-19T03:55:30;102752.31;;;8.87;78.09
36692;BME280;22678;52.052;4.242;2023-04-19T03:57:55;102763.81;;;8.92;78.21
36692;BME280;22678;52.052;4.242;2023-04-19T04:00:21;102750.47;;;8.84;78.57
36692;BME280;22678;52.052;4.242;2023-04-19T04:02:46;102764.72;;;8.92;78.52
36692;BME280;22678;52.052;4.242;2023-04-19T04:05:12;102749.69;;;8.87;78.39
36692;BME280;22678;52.052;4.242;2023-04-19T04:07:37;102763.09;;;8.98;78.45
36692;BME280;22678;52.052;4.242;2023-04-19T04:10:03;102757.78;;;8.94;78.27
36692;BME280;22678;52.052;4.242;2023-04-19T04:12:28;102764.03;;;8.98;78.61
36692;BME280;22678;52.052;4.242;2023-04-19T04:14:54;102757.78;;;8.94;78.46
36692;BME280;22678;52.052;4.242;2023-04-19T04:17:19;102762.31;;;9.00;78.66
36692;BME280;22678;52.052;4.242;2023-04-19T04:19:45;102751.78;;;8.99;78.60
36692;BME280;22678;52.052;4.242;2023-04-19T04:22:10;102756.19;;;9.00;78.62
36692;BME280;22678;52.052;4.242;2023-04-19T04:24:39;102767.69;;;9.05;78.72
36692;BME280;22678;52.052;4.242;2023-04-19T04:27:06;102781.78;;;9.07;78.68
36692;BME280;22678;52.052;4.242;2023-04-19T04:29:37;102774.69;;;9.04;78.73
36692;BME280;22678;52.052;4.242;2023-04-19T04:32:06;102780.91;;;9.08;78.76
36692;BME280;22678;52.052;4.242;2023-04-19T04:34:33;102774.81;;;9.09;78.71
36692;BME280;22678;52.052;4.242;2023-04-19T04:36:58;102775.47;;;9.02;78.75
36692;BME280;22678;52.052;4.242;2023-04-19T04:39:23;102775.66;;;9.08;78.80
36692;BME280;22678;52.052;4.242;2023-04-19T04:41:49;102782.78;;;9.12;78.68
36692;BME280;22678;52.052;4.242;2023-04-19T04:44:16;102778.28;;;9.08;78.80
36692;BME280;22678;52.052;4.242;2023-04-19T04:46:41;102769.56;;;9.09;78.46
36692;BME280;22678;52.052;4.242;2023-04-19T04:49:06;102781.00;;;9.11;79.10
36692;BME280;22678;52.052;4.242;2023-04-19T04:51:33;102789.00;;;9.16;78.77
36692;BME280;22678;52.052;4.242;2023-04-19T04:53:58;102779.28;;;9.11;78.61
36692;BME280;22678;52.052;4.242;2023-04-19T04:56:23;102764.22;;;9.06;78.71
36692;BME280;22678;52.052;4.242;2023-04-19T04:58:50;102776.56;;;9.08;78.67
36692;BME280;22678;52.052;4.242;2023-04-19T05:01:15;102800.50;;;9.19;78.89
36692;BME280;22678;52.052;4.242;2023-04-19T05:03:43;102783.66;;;9.12;78.92
36692;BME280;22678;52.052;4.242;2023-04-19T05:06:09;102778.19;;;9.05;78.72
36692;BME280;22678;52.052;4.242;2023-04-19T05:08:34;102795.31;;;9.22;78.43
36692;BME280;22678;52.052;4.242;2023-04-19T05:10:59;102789.91;;;9.16;78.49
36692;BME280;22678;52.052;4.242;2023-04-19T05:13:25;102798.88;;;9.24;78.57
36692;BME280;22678;52.052;4.242;2023-04-19T05:15:50;102795.41;;;9.25;78.71
36692;BME280;22678;52.052;4.242;2023-04-19T05:18:15;102785.69;;;9.23;78.72
36692;BME280;22678;52.052;4.242;2023-04-19T05:20:41;102783.94;;;9.22;78.65
36692;BME280;22678;52.052;4.242;2023-04-19T05:23:06;102772.44;;;9.18;78.50
36692;BME280;22678;52.052;4.242;2023-04-19T05:25:32;102784.81;;;9.22;78.64
36692;BME280;22678;52.052;4.242;2023-04-19T05:27:57;102788.53;;;9.29;78.57
36692;BME280;22678;52.052;4.242;2023-04-19T05:30:23;102781.56;;;9.31;78.56
36692;BME280;22678;52.052;4.242;2023-04-19T05:32:48;102779.06;;;9.36;78.49
36692;BME280;22678;52.052;4.242;2023-04-19T05:35:13;102788.81;;;9.40;78.28
36692;BME280;22678;52.052;4.242;2023-04-19T05:37:39;102797.69;;;9.45;77.98
36692;BME280;22678;52.052;4.242;2023-04-19T05:40:06;102801.22;;;9.45;78.35
36692;BME280;22678;52.052;4.242;2023-04-19T05:42:34;102793.28;;;9.42;77.92
36692;BME280;22678;52.052;4.242;2023-04-19T05:44:59;102790.50;;;9.38;77.83
36692;BME280;22678;52.052;4.242;2023-04-19T05:47:24;102791.47;;;9.41;77.68
36692;BME280;22678;52.052;4.242;2023-04-19T05:49:50;102801.19;;;9.44;77.66
36692;BME280;22678;52.052;4.242;2023-04-19T05:52:15;102799.41;;;9.43;77.34
36692;BME280;22678;52.052;4.242;2023-04-19T05:54:41;102799.44;;;9.44;77.24
36692;BME280;22678;52.052;4.242;2023-04-19T05:57:06;102806.59;;;9.50;77.08
36692;BME280;22678;52.052;4.242;2023-04-19T05:59:31;102815.38;;;9.51;76.66
36692;BME280;22678;52.052;4.242;2023-04-19T06:01:57;102795.84;;;9.41;76.49
36692;BME280;22678;52.052;4.242;2023-04-19T06:04:22;102796.59;;;9.37;76.25
36692;BME280;22678;52.052;4.242;2023-04-19T06:06:47;102789.47;;;9.33;76.48
36692;BME280;22678;52.052;4.242;2023-04-19T06:09:13;102800.16;;;9.39;76.22
36692;BME280;22678;52.052;4.242;2023-04-19T06:11:39;102803.22;;;9.54;75.96
36692;BME280;22678;52.052;4.242;2023-04-19T06:14:05;102807.19;;;9.72;75.47
36692;BME280;22678;52.052;4.242;2023-04-19T06:16:30;102809.31;;;9.85;74.92
36692;BME280;22678;52.052;4.242;2023-04-19T06:18:56;102815.03;;;10.04;74.06
36692;BME280;22678;52.052;4.242;2023-04-19T06:21:21;102827.63;;;10.17;73.81
36692;BME280;22678;52.052;4.242;2023-04-19T06:23:46;102801.41;;;10.20;72.97
36692;BME280;22678;52.052;4.242;2023-04-19T06:26:12;102822.88;;;10.36;71.95
36692;BME280;22678;52.052;4.242;2023-04-19T06:28:37;102821.31;;;10.44;71.66
36692;BME280;22678;52.052;4.242;2023-04-19T06:31:03;102807.44;;;10.51;71.20
36692;BME280;22678;52.052;4.242;2023-04-19T06:33:28;102816.56;;;10.65;70.70
36692;BME280;22678;52.052;4.242;2023-04-19T06:35:54;102814.94;;;10.71;69.79
36692;BME280;22678;52.052;4.242;2023-04-19T06:38:19;102806.44;;;10.84;69.54
36692;BME280;22678;52.052;4.242;2023-04-19T06:40:44;102811.72;;;10.84;68.38
36692;BME280;22678;52.052;4.242;2023-04-19T06:43:10;102832.09;;;10.93;67.68
36692;BME280;22678;52.052;4.242;2023-04-19T06:45:35;102827.72;;;10.93;67.16
36692;BME280;22678;52.052;4.242;2023-04-19T06:48:00;102821.66;;;10.97;66.85
36692;BME280;22678;52.052;4.242;2023-04-19T06:50:26;102813.03;;;11.04;66.72
36692;BME280;22678;52.052;4.242;2023-04-19T06:52:52;102814.06;;;11.13;66.08
36692;BME280;22678;52.052;4.242;2023-04-19T06:55:17;102814.41;;;11.28;66.35
36692;BME280;22678;52.052;4.242;2023-04-19T06:57:42;102820.13;;;11.50;65.88
36692;BME280;22678;52.052;4.242;2023-04-19T07:00:09;102805.19;;;11.50;64.90
36692;BME280;22678;52.052;4.242;2023-04-19T07:02:35;102831.03;;;11.70;63.66
36692;BME280;22678;52.052;4.242;2023-04-19T07:05:01;102823.28;;;11.79;63.07
36692;BME280;22678;52.052;4.242;2023-04-19T07:07:26;102815.44;;;11.81;62.66
36692;BME280;22678;52.052;4.242;2023-04-19T07:09:51;102805.91;;;11.90;61.83
36692;BME280;22678;52.052;4.242;2023-04-19T07:12:17;102815.91;;;12.08;61.81
36692;BME280;22678;52.052;4.242;2023-04-19T07:14:42;102799.50;;;12.23;61.17
36692;BME280;22678;52.052;4.242;2023-04-19T07:17:07;102806.69;;;12.34;60.66
36692;BME280;22678;52.052;4.242;2023-04-19T07:19:32;102800.56;;;12.36;59.81
36692;BME280;22678;52.052;4.242;2023-04-19T07:21:59;102814.81;;;12.48;59.54
36692;BME280;22678;52.052;4.242;2023-04-19T07:24:25;102796.31;;;12.46;58.80
36692;BME280;22678;52.052;4.242;2023-04-19T07:26:52;102802.72;;;12.62;58.65
36692;BME280;22678;52.052;4.242;2023-04-19T07:29:17;102809.09;;;12.76;58.56
36692;BME280;22678;52.052;4.242;2023-04-19T07:31:43;102799.63;;;12.94;58.38
36692;BME280;22678;52.052;4.242;2023-04-19T07:34:08;102798.97;;;13.10;57.61
36692;BME280;22678;52.052;4.242;2023-04-19T07:36:34;102786.63;;;13.09;55.51
36692;BME280;22678;52.052;4.242;2023-04-19T07:39:01;102804.34;;;13.18;55.60
36692;BME280;22678;52.052;4.242;2023-04-19T07:41:26;102792.97;;;13.24;55.63
36692;BME280;22678;52.052;4.242;2023-04-19T07:43:52;102789.59;;;13.34;55.14
36692;BME280;22678;52.052;4.242;2023-04-19T07:46:17;102789.78;;;13.53;54.59
36692;BME280;22678;52.052;4.242;2023-04-19T07:48:43;102804.00;;;13.62;53.53
36692;BME280;22678;52.052;4.242;2023-04-19T07:51:15;102805.78;;;13.65;53.29
36692;BME280;22678;52.052;4.242;2023-04-19T07:53:41;102798.81;;;13.73;52.86
36692;BME280;22678;52.052;4.242;2023-04-19T07:56:08;102794.28;;;13.63;51.23
36692;BME280;22678;52.052;4.242;2023-04-19T07:58:34;102803.16;;;13.66;51.28
36692;BME280;22678;52.052;4.242;2023-04-19T08:01:00;102791.72;;;13.69;51.85
36692;BME280;22678;52.052;4.242;2023-04-19T08:03:25;102802.47;;;13.88;52.02
36692;BME280;22678;52.052;4.242;2023-04-19T08:05:51;102795.63;;;14.11;52.17
36692;BME280;22678;52.052;4.242;2023-04-19T08:08:17;102797.56;;;14.32;51.20
36692;BME280;22678;52.052;4.242;2023-04-19T08:10:42;102785.28;;;14.42;49.12
36692;BME280;22678;52.052;4.242;2023-04-19T08:13:07;102778.19;;;14.41;49.59
36692;BME280;22678;52.052;4.242;2023-04-19T08:15:33;102805.72;;;14.63;49.32
36692;BME280;22678;52.052;4.242;2023-04-19T08:17:59;102794.31;;;14.69;48.53
36692;BME280;22678;52.052;4.242;2023-04-19T08:20:24;102789.94;;;14.77;47.89
36692;BME280;22678;52.052;4.242;2023-04-19T08:22:50;102789.06;;;14.78;48.04
36692;BME280;22678;52.052;4.242;2023-04-19T08:25:15;102800.66;;;14.97;47.58
36692;BME280;22678;52.052;4.242;2023-04-19T08:27:41;102785.66;;;15.07;46.93
36692;BME280;22678;52.052;4.242;2023-04-19T08:30:07;102789.25;;;15.15;46.25
36692;BME280;22678;52.052;4.242;2023-04-19T08:32:33;102773.28;;;15.06;44.87
36692;BME280;22678;52.052;4.242;2023-04-19T08:34:58;102786.59;;;15.12;45.58
36692;BME280;22678;52.052;4.242;2023-04-19T08:37:25;102788.38;;;15.21;45.60
36692;BME280;22678;52.052;4.242;2023-04-19T08:39:51;102789.31;;;15.40;45.31
36692;BME280;22678;52.052;4.242;2023-04-19T08:42:16;102778.72;;;15.46;45.23
36692;BME280;22678;52.052;4.242;2023-04-19T08:44:41;102779.66;;;15.71;45.22
36692;BME280;22678;52.052;4.242;2023-04-19T08:47:09;102791.22;;;15.84;44.71
36692;BME280;22678;52.052;4.242;2023-04-19T08:49:35;102783.25;;;15.92;43.13
36692;BME280;22678;52.052;4.242;2023-04-19T08:52:03;102783.25;;;15.81;43.07
36692;BME280;22678;52.052;4.242;2023-04-19T08:54:29;102790.31;;;15.81;43.06
36692;BME280;22678;52.052;4.242;2023-04-19T08:56:57;102777.03;;;15.85;43.60
36692;BME280;22678;52.052;4.242;2023-04-19T08:59:23;102786.78;;;16.02;43.42
36692;BME280;22678;52.052;4.242;2023-04-19T09:01:48;102785.91;;;16.18;42.12
36692;BME280;22678;52.052;4.242;2023-04-19T09:04:14;102787.66;;;16.22;42.14
36692;BME280;22678;52.052;4.242;2023-04-19T09:06:40;102795.63;;;16.24;41.87
36692;BME280;22678;52.052;4.242;2023-04-19T09:09:16;102792.97;;;16.16;41.04
36692;BME280;22678;52.052;4.242;2023-04-19T09:11:42;102776.19;;;16.05;40.69
36692;BME280;22678;52.052;4.242;2023-04-19T09:14:12;102783.25;;;16.15;41.04
36692;BME280;22678;52.052;4.242;2023-04-19T09:16:37;102780.59;;;16.15;40.21
36692;BME280;22678;52.052;4.242;2023-04-19T09:19:04;102775.25;;;16.10;40.24
36692;BME280;22678;52.052;4.242;2023-04-19T09:21:31;102771.75;;;16.25;40.84
36692;BME280;22678;52.052;4.242;2023-04-19T09:23:57;102771.72;;;16.35;39.96
36692;BME280;22678;52.052;4.242;2023-04-19T09:26:23;102752.25;;;16.34;40.12
36692;BME280;22678;52.052;4.242;2023-04-19T09:28:56;102779.66;;;16.59;40.06
36692;BME280;22678;52.052;4.242;2023-04-19T09:31:22;102780.50;;;16.69;40.00
36692;BME280;22678;52.052;4.242;2023-04-19T09:33:47;102751.22;;;16.83;40.45
36692;BME280;22678;52.052;4.242;2023-04-19T09:36:29;102773.34;;;16.97;38.21
36692;BME280;22678;52.052;4.242;2023-04-19T09:38:55;102779.53;;;16.99;37.97
36692;BME280;22678;52.052;4.242;2023-04-19T09:41:20;102768.00;;;17.07;38.57
36692;BME280;22678;52.052;4.242;2023-04-19T09:43:46;102772.28;;;17.29;38.01
36692;BME280;22678;52.052;4.242;2023-04-19T09:46:31;102790.84;;;17.45;36.45
36692;BME280;22678;52.052;4.242;2023-04-19T09:49:26;102769.56;;;17.39;35.87
36692;BME280;22678;52.052;4.242;2023-04-19T09:51:55;102761.63;;;17.36;35.08
36692;BME280;22678;52.052;4.242;2023-04-19T09:54:24;102747.47;;;17.32;35.11
36692;BME280;22678;52.052;4.242;2023-04-19T09:56:51;102765.97;;;17.49;34.20
36692;BME280;22678;52.052;4.242;2023-04-19T09:59:17;102756.25;;;17.45;34.04
36692;BME280;22678;52.052;4.242;2023-04-19T10:02:03;102761.47;;;17.59;33.19
36692;BME280;22678;52.052;4.242;2023-04-19T10:04:28;102754.41;;;17.53;32.97
36692;BME280;22678;52.052;4.242;2023-04-19T10:06:54;102744.66;;;17.58;32.99
36692;BME280;22678;52.052;4.242;2023-04-19T10:09:20;102746.25;;;17.78;33.18
36692;BME280;22678;52.052;4.242;2023-04-19T10:11:50;102742.75;;;17.76;30.28
36692;BME280;22678;52.052;4.242;2023-04-19T10:14:23;102748.09;;;17.73;30.13
36692;BME280;22678;52.052;4.242;2023-04-19T10:16:49;102753.47;;;17.63;28.84
36692;BME280;22678;52.052;4.242;2023-04-19T10:19:16;102744.72;;;17.46;29.18
36692;BME280;22678;52.052;4.242;2023-04-19T10:21:42;102745.56;;;17.52;28.80
36692;BME280;22678;52.052;4.242;2023-04-19T10:24:12;102733.19;;;17.48;29.46
36692;BME280;22678;52.052;4.242;2023-04-19T10:27:13;102743.66;;;17.72;30.34
36692;BME280;22678;52.052;4.242;2023-04-19T10:32:15;102738.84;;;18.20;30.48
36692;BME280;22678;52.052;4.242;2023-04-19T10:34:41;102736.06;;;18.29;28.99
36692;BME280;22678;52.052;4.242;2023-04-19T10:37:10;102737.09;;;18.16;28.96
36692;BME280;22678;52.052;4.242;2023-04-19T10:39:40;102752.13;;;18.21;28.75
36692;BME280;22678;52.052;4.242;2023-04-19T10:42:06;102736.19;;;18.18;28.20
36692;BME280;22678;52.052;4.242;2023-04-19T10:44:31;102719.47;;;18.02;27.60
36692;BME280;22678;52.052;4.242;2023-04-19T10:46:58;102739.88;;;18.02;27.87
36692;BME280;22678;52.052;4.242;2023-04-19T10:49:23;102728.47;;;17.86;28.41
36692;BME280;22678;52.052;4.242;2023-04-19T10:51:50;102735.56;;;17.84;27.68
36692;BME280;22678;52.052;4.242;2023-04-19T10:54:27;102735.63;;;17.78;27.82
36692;BME280;22678;52.052;4.242;2023-04-19T10:57:07;102724.16;;;17.66;28.67
36692;BME280;22678;52.052;4.242;2023-04-19T10:59:34;102744.44;;;17.86;28.64
36692;BME280;22678;52.052;4.242;2023-04-19T11:02:45;102738.97;;;18.04;28.53
36692;BME280;22678;52.052;4.242;2023-04-19T11:07:17;102729.16;;;18.11;27.97
36692;BME280;22678;52.052;4.242;2023-04-19T11:09:46;102724.63;;;18.19;28.01
36692;BME280;22678;52.052;4.242;2023-04-19T11:12:13;102722.84;;;18.20;28.13
36692;BME280;22678;52.052;4.242;2023-04-19T11:14:55;102713.03;;;18.24;28.02
36692;BME280;22678;52.052;4.242;2023-04-19T11:22:32;102729.94;;;18.21;28.69
36692;BME280;22678;52.052;4.242;2023-04-19T11:27:29;102714.09;;;18.09;28.80
36692;BME280;22678;52.052;4.242;2023-04-19T11:30:04;102716.66;;;18.18;28.79
36692;BME280;22678;52.052;4.242;2023-04-19T11:32:30;102713.88;;;18.30;29.78
36692;BME280;22678;52.052;4.242;2023-04-19T11:34:55;102711.94;;;18.45;29.42
36692;BME280;22678;52.052;4.242;2023-04-19T11:37:21;102714.41;;;18.60;29.16
36692;BME280;22678;52.052;4.242;2023-04-19T11:39:47;102709.94;;;18.62;29.10
36692;BME280;22678;52.052;4.242;2023-04-19T11:42:17;102707.22;;;18.65;28.88
36692;BME280;22678;52.052;4.242;2023-04-19T11:44:50;102706.34;;;18.65;28.73
36692;BME280;22678;52.052;4.242;2023-04-19T11:47:16;102711.75;;;18.60;28.25
36692;BME280;22678;52.052;4.242;2023-04-19T11:49:42;102701.28;;;18.45;28.42
36692;BME280;22678;52.052;4.242;2023-04-19T11:52:07;102685.22;;;18.51;28.72
36692;BME280;22678;52.052;4.242;2023-04-19T11:54:32;102695.75;;;18.60;28.12
36692;BME280;22678;52.052;4.242;2023-04-19T11:57:03;102704.63;;;18.61;28.42
36692;BME280;22678;52.052;4.242;2023-04-19T11:59:32;102678.88;;;18.61;28.56
36692;BME280;22678;52.052;4.242;2023-04-19T12:04:30;102681.09;;;18.98;28.54
36692;BME280;22678;52.052;4.242;2023-04-19T12:06:57;102668.44;;;19.13;28.53
36692;BME280;22678;52.052;4.242;2023-04-19T12:09:23;102676.00;;;19.42;28.51
36692;BME280;22678;52.052;4.242;2023-04-19T12:11:49;102658.97;;;19.48;27.42
36692;BME280;22678;52.052;4.242;2023-04-19T12:14:16;102667.78;;;19.53;27.26
36692;BME280;22678;52.052;4.242;2023-04-19T12:16:44;102624.47;;;19.37;27.85
36692;BME280;22678;52.052;4.242;2023-04-19T12:19:10;102660.28;;;19.76;27.74
36692;BME280;22678;52.052;4.242;2023-04-19T12:21:40;102662.94;;;19.76;27.54
36692;BME280;22678;52.052;4.242;2023-04-19T12:24:06;102664.75;;;19.76;27.24
36692;BME280;22678;52.052;4.242;2023-04-19T12:26:32;102653.22;;;19.72;26.90
36692;BME280;22678;52.052;4.242;2023-04-19T12:28:58;102653.44;;;19.60;26.11
36692;BME280;22678;52.052;4.242;2023-04-19T12:31:24;102657.19;;;19.50;26.59
36692;BME280;22678;52.052;4.242;2023-04-19T12:33:50;102646.66;;;19.40;26.76
36692;BME280;22678;52.052;4.242;2023-04-19T12:36:15;102648.34;;;19.44;26.42
36692;BME280;22678;52.052;4.242;2023-04-19T12:38:40;102652.69;;;19.52;26.88
36692;BME280;22678;52.052;4.242;2023-04-19T12:41:06;102652.59;;;19.56;25.89
36692;BME280;22678;52.052;4.242;2023-04-19T12:43:31;102639.28;;;19.55;26.44
36692;BME280;22678;52.052;4.242;2023-04-19T12:45:57;102651.56;;;19.65;26.40
36692;BME280;22678;52.052;4.242;2023-04-19T12:48:23;102650.56;;;19.71;26.21
36692;BME280;22678;52.052;4.242;2023-04-19T12:50:49;102654.03;;;19.77;25.70
36692;BME280;22678;52.052;4.242;2023-04-19T12:53:14;102652.28;;;19.75;25.71
36692;BME280;22678;52.052;4.242;2023-04-19T12:55:39;102646.78;;;19.86;26.13
36692;BME280;22678;52.052;4.242;2023-04-19T12:58:05;102643.19;;;19.88;25.66
36692;BME280;22678;52.052;4.242;2023-04-19T13:00:31;102635.13;;;19.90;25.78
36692;BME280;22678;52.052;4.242;2023-04-19T13:02:56;102617.34;;;19.89;26.06
36692;BME280;22678;52.052;4.242;2023-04-19T13:05:22;102637.63;;;19.99;24.80
36692;BME280;22678;52.052;4.242;2023-04-19T13:07:47;102629.75;;;19.93;24.97